createdAt,value
2017-12-01T00:01:45.404Z,5.70
2017-12-01T00:04:13.671Z,6.10
2017-12-01T00:06:41.912Z,6.40
2017-12-01T00:09:10.184Z,6.60
2017-12-01T00:11:38.443Z,7.10
2017-12-01T00:14:07.084Z,7.70
2017-12-01T00:16:35.363Z,7.70
2017-12-01T00:19:03.617Z,7.70
2017-12-01T00:21:31.878Z,7.20
2017-12-01T00:24:00.416Z,7.40
2017-12-01T00:26:28.783Z,7.20
2017-12-01T00:28:57.067Z,7.50
2017-12-01T00:31:25.325Z,7.70
2017-12-01T00:33:53.571Z,7.70
2017-12-01T00:36:22.786Z,7.90
2017-12-01T00:38:51.098Z,7.80
2017-12-01T00:41:19.573Z,8.20
2017-12-01T00:43:47.870Z,8.10
2017-12-01T00:46:16.136Z,7.90
2017-12-01T00:48:44.412Z,7.80
2017-12-01T00:51:12.886Z,7.80
2017-12-01T00:53:41.568Z,7.60
2017-12-01T00:56:09.812Z,7.50
2017-12-01T00:58:38.055Z,7.70
2017-12-01T01:01:06.733Z,8.10
2017-12-01T01:03:35.414Z,8.20
2017-12-01T01:06:03.659Z,8.20
2017-12-01T01:08:31.951Z,8.40
2017-12-01T01:11:00.213Z,8.60
2017-12-01T01:13:28.452Z,8.70
2017-12-01T01:15:56.751Z,8.40
2017-12-01T01:18:25.001Z,8.50
2017-12-01T01:20:53.251Z,8.70
2017-12-01T01:23:21.899Z,8.50
2017-12-01T01:25:50.160Z,8.50
2017-12-01T01:28:18.408Z,8.20
2017-12-01T01:30:46.717Z,7.80
2017-12-01T01:33:14.960Z,7.60
2017-12-01T01:35:43.207Z,7.50
2017-12-01T01:38:11.485Z,7.30
2017-12-01T01:40:40.211Z,7.10
2017-12-01T01:43:08.451Z,7.10
2017-12-01T01:45:37.128Z,7.10
2017-12-01T01:48:05.413Z,7.10
2017-12-01T01:50:33.663Z,6.40
2017-12-01T01:53:01.941Z,6.50
2017-12-01T01:55:30.177Z,6.60
2017-12-01T01:57:59.201Z,6.60
2017-12-01T02:00:27.483Z,7.10
2017-12-01T02:02:55.731Z,7.60
2017-12-01T02:05:24.008Z,8.00
2017-12-01T02:07:52.288Z,8.00
2017-12-01T02:10:20.526Z,7.90
2017-12-01T02:12:48.770Z,7.90
2017-12-01T02:15:17.340Z,8.00
2017-12-01T02:17:45.584Z,8.40
2017-12-01T02:20:14.099Z,8.50
2017-12-01T02:22:42.482Z,8.40
2017-12-01T02:25:10.728Z,8.40
2017-12-01T02:27:38.999Z,8.40
2017-12-01T02:30:07.508Z,8.30
2017-12-01T02:32:35.766Z,8.60
2017-12-01T02:35:03.994Z,8.40
2017-12-01T02:37:32.288Z,8.50
2017-12-01T02:40:00.569Z,8.70
2017-12-01T02:42:29.092Z,8.80
2017-12-01T02:44:58.224Z,8.80
2017-12-01T02:47:26.898Z,9.10
2017-12-01T02:49:55.536Z,9.20
2017-12-01T02:52:23.830Z,9.20
2017-12-01T02:54:54.718Z,9.30
2017-12-01T02:57:23.020Z,9.10
2017-12-01T02:59:51.250Z,8.80
2017-12-01T03:02:19.484Z,8.80
2017-12-01T03:04:47.761Z,8.90
2017-12-01T03:07:16.026Z,8.90
2017-12-01T03:09:44.276Z,8.90
2017-12-01T03:12:12.602Z,9.00
2017-12-01T03:14:41.216Z,8.90
2017-12-01T03:17:09.893Z,8.70
2017-12-01T03:19:38.156Z,8.70
2017-12-01T03:22:06.399Z,9.00
2017-12-01T03:24:34.649Z,9.30
2017-12-01T03:27:03.070Z,9.20
2017-12-01T03:29:31.322Z,9.00
2017-12-01T03:31:59.581Z,9.10
2017-12-01T03:34:27.865Z,9.00
2017-12-01T03:36:56.276Z,8.90
2017-12-01T03:39:24.508Z,8.90
2017-12-01T03:41:52.806Z,8.80
2017-12-01T03:44:21.048Z,8.90
2017-12-01T03:46:49.295Z,9.10
2017-12-01T03:49:17.564Z,9.30
2017-12-01T03:51:45.812Z,9.50
2017-12-01T03:54:14.123Z,9.60
2017-12-01T03:56:42.820Z,9.60
2017-12-01T03:59:11.057Z,9.60
2017-12-01T04:01:39.661Z,9.80
2017-12-01T04:04:08.163Z,9.80
2017-12-01T04:06:36.798Z,9.00
2017-12-01T04:09:05.027Z,9.00
2017-12-01T04:11:33.696Z,8.30
2017-12-01T04:14:01.939Z,8.30
2017-12-01T04:16:30.203Z,8.40
2017-12-01T04:18:58.504Z,8.30
2017-12-01T04:21:26.736Z,8.20
2017-12-01T04:23:55.000Z,8.40
2017-12-01T04:26:26.008Z,8.70
2017-12-01T04:28:54.263Z,8.00
2017-12-01T04:31:22.506Z,7.20
2017-12-01T04:33:50.941Z,7.30
2017-12-01T04:36:19.245Z,7.40
2017-12-01T04:38:47.922Z,7.70
2017-12-01T04:41:16.235Z,7.70
2017-12-01T04:43:44.477Z,7.80
2017-12-01T04:46:13.233Z,8.30
2017-12-01T04:48:41.488Z,8.30
2017-12-01T04:51:09.745Z,8.50
2017-12-01T04:53:38.004Z,8.20
2017-12-01T04:56:06.643Z,6.90
2017-12-01T04:58:34.894Z,6.90
2017-12-01T05:01:03.180Z,6.30
2017-12-01T05:03:31.434Z,5.80
2017-12-01T05:05:59.703Z,5.50
2017-12-01T05:08:27.953Z,5.20
2017-12-01T05:10:57.408Z,5.70
2017-12-01T05:13:25.792Z,5.70
2017-12-01T05:15:54.290Z,5.90
2017-12-01T05:18:22.547Z,6.40
2017-12-01T05:20:50.874Z,6.60
2017-12-01T05:23:19.969Z,6.50
2017-12-01T05:25:48.619Z,6.90
2017-12-01T05:28:21.320Z,6.90
2017-12-01T05:30:50.214Z,7.40
2017-12-01T05:33:18.858Z,8.40
2017-12-01T05:35:47.136Z,8.40
2017-12-01T05:38:15.398Z,8.90
2017-12-01T05:40:43.689Z,9.30
2017-12-01T05:43:12.013Z,9.20
2017-12-01T05:45:40.651Z,9.10
2017-12-01T05:48:08.896Z,9.10
2017-12-01T05:50:37.156Z,9.20
2017-12-01T05:53:05.816Z,8.90
2017-12-01T05:55:34.065Z,8.90
2017-12-01T05:58:02.332Z,8.60
2017-12-01T06:00:30.566Z,8.80
2017-12-01T06:03:00.639Z,8.90
2017-12-01T06:05:29.015Z,8.90
2017-12-01T06:07:57.244Z,8.30
2017-12-01T06:10:25.551Z,7.60
2017-12-01T06:12:53.807Z,7.20
2017-12-01T06:15:22.070Z,7.20
2017-12-01T06:17:50.359Z,7.50
2017-12-01T06:20:18.672Z,8.00
2017-12-01T06:22:46.988Z,8.20
2017-12-01T06:25:15.306Z,8.20
2017-12-01T06:27:43.588Z,8.10
2017-12-01T06:30:12.349Z,8.80
2017-12-01T06:32:41.396Z,9.10
2017-12-01T06:35:09.648Z,9.10
2017-12-01T06:37:37.894Z,9.40
2017-12-01T06:40:07.028Z,9.60
2017-12-01T06:42:35.369Z,9.60
2017-12-01T06:45:03.904Z,9.60
2017-12-01T06:47:32.227Z,9.70
2017-12-01T06:50:00.467Z,9.70
2017-12-01T06:52:28.943Z,9.40
2017-12-01T06:55:06.850Z,9.50
2017-12-01T06:57:37.129Z,9.60
2017-12-01T07:00:05.384Z,9.70
2017-12-01T07:02:33.658Z,9.40
2017-12-01T07:05:01.912Z,9.40
2017-12-01T07:07:30.577Z,8.90
2017-12-01T07:09:58.816Z,8.90
2017-12-01T07:12:27.061Z,9.00
2017-12-01T07:14:55.778Z,9.00
2017-12-01T07:17:24.440Z,9.00
2017-12-01T07:19:52.667Z,8.70
2017-12-01T07:22:21.045Z,8.50
2017-12-01T07:24:49.293Z,8.60
2017-12-01T07:27:17.538Z,8.80
2017-12-01T07:29:45.800Z,9.00
2017-12-01T07:32:14.288Z,9.10
2017-12-01T07:34:42.958Z,9.30
2017-12-01T07:37:11.655Z,9.30
2017-12-01T07:39:41.024Z,8.80
2017-12-01T07:42:09.552Z,8.30
2017-12-01T07:44:42.617Z,8.10
2017-12-01T07:47:10.922Z,7.60
2017-12-01T07:49:39.153Z,7.50
2017-12-01T07:52:07.412Z,7.40
2017-12-01T07:54:35.702Z,7.10
2017-12-01T07:57:03.946Z,7.10
2017-12-01T07:59:32.224Z,7.20
2017-12-01T08:02:00.755Z,7.50
2017-12-01T08:04:29.044Z,7.80
2017-12-01T08:06:57.700Z,8.30
2017-12-01T08:09:26.003Z,8.30
2017-12-01T08:11:54.650Z,8.90
2017-12-01T08:14:22.885Z,8.90
2017-12-01T08:17:04.078Z,9.20
2017-12-01T08:19:32.324Z,9.50
2017-12-01T08:22:12.980Z,9.20
2017-12-01T08:24:53.275Z,9.20
2017-12-01T08:27:21.522Z,9.40
2017-12-01T08:29:50.186Z,9.30
2017-12-01T08:32:18.425Z,9.30
2017-12-01T08:34:46.697Z,8.80
2017-12-01T08:37:15.823Z,8.90
2017-12-01T08:39:44.079Z,9.00
2017-12-01T08:42:12.608Z,9.20
2017-12-01T08:44:41.244Z,9.20
2017-12-01T08:47:09.529Z,9.20
2017-12-01T08:49:37.909Z,8.80
2017-12-01T08:52:06.144Z,8.90
2017-12-01T08:54:34.684Z,9.10
2017-12-01T08:57:02.983Z,9.40
2017-12-01T08:59:32.534Z,9.90
2017-12-01T09:02:00.797Z,9.90
2017-12-01T09:04:29.097Z,9.90
2017-12-01T09:06:57.374Z,9.90
2017-12-01T09:09:25.664Z,10.00
2017-12-01T09:11:53.929Z,10.10
2017-12-01T09:14:22.183Z,10.10
2017-12-01T09:16:50.485Z,10.00
2017-12-01T09:19:18.777Z,10.10
2017-12-01T09:21:47.041Z,10.30
2017-12-01T09:24:15.362Z,9.70
2017-12-01T09:26:44.722Z,9.50
2017-12-01T09:29:13.009Z,9.70
2017-12-01T09:31:41.287Z,9.90
2017-12-01T09:34:09.936Z,9.50
2017-12-01T09:36:38.233Z,9.50
2017-12-01T09:39:07.633Z,8.90
2017-12-01T09:41:35.921Z,8.90
2017-12-01T09:44:04.381Z,9.30
2017-12-01T09:46:32.678Z,9.10
2017-12-01T09:49:00.931Z,9.10
2017-12-01T09:51:29.422Z,9.50
2017-12-01T09:53:57.685Z,9.50
2017-12-01T09:56:25.956Z,10.00
2017-12-01T09:58:54.213Z,10.00
2017-12-01T10:01:22.479Z,9.80
2017-12-01T10:03:50.738Z,10.10
2017-12-01T10:06:19.406Z,10.80
2017-12-01T10:08:47.747Z,10.80
2017-12-01T10:11:16.096Z,10.50
2017-12-01T10:13:44.736Z,10.00
2017-12-01T10:16:13.120Z,10.00
2017-12-01T10:18:41.481Z,9.60
2017-12-01T10:21:09.731Z,9.50
2017-12-01T10:23:37.997Z,9.70
2017-12-01T10:26:06.915Z,9.70
2017-12-01T10:28:35.202Z,10.00
2017-12-01T10:31:03.486Z,10.30
2017-12-01T10:33:31.744Z,10.30
2017-12-01T10:36:00.544Z,10.30
2017-12-01T10:38:28.857Z,10.60
2017-12-01T10:40:57.128Z,10.70
2017-12-01T10:43:26.275Z,10.60
2017-12-01T10:45:54.925Z,10.40
2017-12-01T10:48:23.760Z,10.40
2017-12-01T10:50:52.065Z,10.30
2017-12-01T10:53:21.016Z,10.90
2017-12-01T10:55:49.263Z,10.90
2017-12-01T10:58:17.522Z,11.00
2017-12-01T11:00:46.205Z,10.80
2017-12-01T11:03:14.883Z,10.00
2017-12-01T11:05:43.524Z,9.20
2017-12-01T11:08:11.820Z,9.20
2017-12-01T11:10:40.086Z,9.00
2017-12-01T11:13:08.336Z,8.30
2017-12-01T11:15:36.649Z,8.20
2017-12-01T11:18:04.905Z,8.40
2017-12-01T11:20:33.146Z,8.90
2017-12-01T11:23:01.440Z,9.40
2017-12-01T11:25:29.695Z,9.90
2017-12-01T11:27:57.972Z,10.20
2017-12-01T11:30:26.245Z,10.40
2017-12-01T11:32:54.480Z,10.60
2017-12-01T11:35:22.933Z,10.80
2017-12-01T11:37:51.218Z,10.80
2017-12-01T11:40:19.463Z,10.70
2017-12-01T11:42:47.880Z,10.60
2017-12-01T11:45:16.182Z,10.80
2017-12-01T11:47:44.436Z,10.80
2017-12-01T11:50:12.701Z,10.90
2017-12-01T11:52:40.958Z,10.80
2017-12-01T11:55:09.245Z,10.30
2017-12-01T11:57:37.525Z,10.00
2017-12-01T12:00:05.776Z,10.20
2017-12-01T12:02:34.088Z,10.50
2017-12-01T12:05:02.581Z,10.80
2017-12-01T12:07:30.834Z,10.90
2017-12-01T12:09:59.136Z,10.80
2017-12-01T12:12:27.452Z,10.60
2017-12-01T12:14:55.721Z,10.80
2017-12-01T12:17:24.416Z,10.90
2017-12-01T12:19:52.656Z,10.90
2017-12-01T12:22:20.903Z,10.90
2017-12-01T12:24:49.188Z,10.60
2017-12-01T12:27:17.477Z,10.70
2017-12-01T12:29:45.740Z,10.40
2017-12-01T12:32:14.221Z,10.10
2017-12-01T12:34:45.896Z,9.60
2017-12-01T12:37:14.198Z,9.50
2017-12-01T12:39:42.852Z,9.50
2017-12-01T12:42:11.431Z,9.50
2017-12-01T12:44:39.689Z,9.70
2017-12-01T12:47:07.949Z,10.00
2017-12-01T12:49:36.189Z,10.20
2017-12-01T12:52:04.863Z,10.30
2017-12-01T12:54:33.101Z,10.30
2017-12-01T12:57:01.386Z,10.40
2017-12-01T12:59:29.762Z,10.60
2017-12-01T13:01:58.037Z,10.80
2017-12-01T13:04:26.283Z,10.90
2017-12-01T13:06:54.926Z,11.10
2017-12-01T13:09:23.183Z,11.20
2017-12-01T13:11:52.640Z,11.10
2017-12-01T13:14:21.281Z,11.20
2017-12-01T13:16:49.589Z,10.90
2017-12-01T13:19:18.290Z,10.40
2017-12-01T13:21:46.550Z,10.40
2017-12-01T13:24:14.840Z,10.40
2017-12-01T13:26:43.084Z,10.50
2017-12-01T13:29:11.440Z,10.50
2017-12-01T13:31:39.735Z,10.40
2017-12-01T13:34:08.398Z,10.30
2017-12-01T13:36:36.722Z,10.30
2017-12-01T13:39:05.435Z,10.70
2017-12-01T13:41:33.775Z,10.80
2017-12-01T13:44:02.486Z,11.00
2017-12-01T13:46:30.825Z,11.10
2017-12-01T13:48:59.272Z,11.20
2017-12-01T13:51:27.580Z,11.10
2017-12-01T13:53:56.251Z,11.10
2017-12-01T13:56:24.565Z,11.10
2017-12-01T13:58:53.021Z,10.80
2017-12-01T14:01:21.811Z,10.70
2017-12-01T14:03:50.195Z,10.70
2017-12-01T14:06:18.950Z,10.30
2017-12-01T14:08:47.200Z,10.30
2017-12-01T14:11:15.489Z,10.40
2017-12-01T14:13:43.878Z,10.40
2017-12-01T14:16:12.280Z,10.50
2017-12-01T14:18:41.036Z,10.60
2017-12-01T14:21:09.652Z,10.60
2017-12-01T14:23:37.964Z,10.50
2017-12-01T14:26:06.447Z,10.60
2017-12-01T14:28:34.689Z,10.60
2017-12-01T14:31:03.002Z,10.80
2017-12-01T14:33:31.376Z,10.90
2017-12-01T14:35:59.629Z,10.70
2017-12-01T14:38:28.408Z,10.60
2017-12-01T14:40:56.686Z,10.60
2017-12-01T14:43:24.962Z,10.70
2017-12-01T14:45:53.633Z,11.00
2017-12-01T14:48:21.901Z,11.00
2017-12-01T14:50:50.165Z,10.90
2017-12-01T14:53:18.404Z,10.90
2017-12-01T14:55:46.666Z,10.90
2017-12-01T14:58:15.631Z,10.90
2017-12-01T15:00:43.868Z,10.90
2017-12-01T15:03:12.157Z,10.80
2017-12-01T15:05:40.411Z,10.90
2017-12-01T15:08:08.660Z,11.00
2017-12-01T15:10:37.622Z,11.10
2017-12-01T15:13:06.100Z,11.10
2017-12-01T15:15:34.371Z,11.10
2017-12-01T15:18:02.683Z,11.00
2017-12-01T15:20:31.332Z,10.80
2017-12-01T15:22:59.594Z,10.80
2017-12-01T15:25:27.849Z,10.30
2017-12-01T15:27:56.089Z,10.40
2017-12-01T15:30:24.843Z,10.60
2017-12-01T15:32:53.104Z,10.60
2017-12-01T15:35:21.344Z,10.70
2017-12-01T15:37:50.452Z,10.50
2017-12-01T15:40:18.705Z,10.30
2017-12-01T15:42:47.378Z,10.30
2017-12-01T15:45:15.662Z,10.30
2017-12-01T15:47:44.172Z,9.90
2017-12-01T15:50:12.700Z,10.00
2017-12-01T15:52:40.976Z,10.10
2017-12-01T15:55:09.237Z,10.20
2017-12-01T15:57:37.497Z,10.40
2017-12-01T16:00:05.792Z,10.60
2017-12-01T16:02:34.113Z,10.70
2017-12-01T16:05:02.773Z,10.80
2017-12-01T16:07:31.027Z,10.80
2017-12-01T16:09:59.265Z,10.90
2017-12-01T16:12:27.583Z,11.00
2017-12-01T16:14:55.836Z,11.00
2017-12-01T16:17:24.090Z,10.90
2017-12-01T16:19:52.416Z,10.40
2017-12-01T16:22:20.648Z,10.30
2017-12-01T16:24:48.955Z,10.30
2017-12-01T16:27:17.272Z,10.30
2017-12-01T16:29:45.921Z,9.90
2017-12-01T16:32:14.220Z,9.90
2017-12-01T16:34:42.481Z,10.00
2017-12-01T16:37:10.752Z,10.10
2017-12-01T16:39:39.072Z,9.90
2017-12-01T16:42:07.829Z,10.10
2017-12-01T16:44:36.576Z,10.20
2017-12-01T16:47:05.048Z,10.20
2017-12-01T16:49:33.321Z,10.30
2017-12-01T16:52:01.577Z,10.30
2017-12-01T16:54:30.249Z,10.30
2017-12-01T16:56:58.544Z,10.30
2017-12-01T16:59:26.795Z,10.30
2017-12-01T17:01:55.073Z,10.10
2017-12-01T17:04:23.640Z,10.10
2017-12-01T17:06:51.937Z,10.20
2017-12-01T17:09:20.224Z,10.20
2017-12-01T17:11:48.478Z,9.70
2017-12-01T17:14:17.056Z,9.60
2017-12-01T17:16:45.946Z,9.60
2017-12-01T17:19:14.212Z,9.70
2017-12-01T17:21:42.439Z,9.80
2017-12-01T17:24:10.708Z,10.00
2017-12-01T17:26:38.956Z,10.10
2017-12-01T17:29:07.629Z,10.40
2017-12-01T17:31:35.925Z,10.40
2017-12-01T17:34:04.567Z,10.70
2017-12-01T17:36:32.832Z,10.70
2017-12-01T17:39:01.266Z,10.80
2017-12-01T17:41:29.530Z,11.00
2017-12-01T17:43:57.865Z,11.00
2017-12-01T17:46:26.166Z,11.00
2017-12-01T17:48:54.483Z,11.00
2017-12-01T17:51:23.143Z,11.00
2017-12-01T17:53:51.401Z,11.00
2017-12-01T17:56:19.698Z,10.80
2017-12-01T17:58:48.006Z,10.80
2017-12-01T18:01:16.283Z,10.90
2017-12-01T18:03:44.594Z,10.90
2017-12-01T18:06:12.880Z,11.00
2017-12-01T18:08:41.156Z,11.00
2017-12-01T18:11:09.435Z,10.90
2017-12-01T18:13:37.714Z,10.90
2017-12-01T18:16:05.956Z,10.90
2017-12-01T18:18:34.268Z,10.80
2017-12-01T18:21:02.532Z,10.70
2017-12-01T18:23:30.812Z,10.70
2017-12-01T18:25:59.099Z,10.70
2017-12-01T18:28:27.347Z,10.80
2017-12-01T18:30:55.596Z,10.80
2017-12-01T18:33:23.874Z,10.60
2017-12-01T18:35:52.148Z,10.60
2017-12-01T18:38:20.436Z,10.60
2017-12-01T18:40:49.008Z,10.70
2017-12-01T18:43:17.284Z,10.60
2017-12-01T18:45:45.602Z,10.20
2017-12-01T18:48:13.869Z,10.10
2017-12-01T18:50:42.485Z,10.00
2017-12-01T18:53:10.777Z,9.90
2017-12-01T18:55:39.028Z,10.00
2017-12-01T18:58:07.280Z,10.10
2017-12-01T19:00:35.556Z,10.10
2017-12-01T19:03:03.796Z,10.20
2017-12-01T19:05:32.117Z,10.30
2017-12-01T19:08:00.398Z,10.40
2017-12-01T19:10:28.867Z,10.20
2017-12-01T19:12:57.364Z,10.20
2017-12-01T19:15:26.098Z,10.10
2017-12-01T19:17:54.731Z,10.00
2017-12-01T19:20:22.981Z,10.00
2017-12-01T19:22:51.505Z,10.00
2017-12-01T19:25:19.751Z,9.60
2017-12-01T19:27:48.008Z,9.30
2017-12-01T19:30:16.311Z,8.90
2017-12-01T19:32:44.557Z,9.00
2017-12-01T19:35:12.829Z,9.10
2017-12-01T19:37:41.477Z,9.50
2017-12-01T19:40:09.719Z,9.50
2017-12-01T19:42:38.224Z,9.60
2017-12-01T19:45:06.913Z,9.60
2017-12-01T19:47:35.160Z,9.70
2017-12-01T19:50:03.452Z,9.60
2017-12-01T19:52:31.696Z,9.70
2017-12-01T19:54:59.954Z,9.80
2017-12-01T19:57:28.945Z,9.70
2017-12-01T19:59:57.585Z,9.60
2017-12-01T20:02:25.828Z,9.50
2017-12-01T20:04:54.140Z,9.50
2017-12-01T20:07:22.511Z,9.60
2017-12-01T20:09:50.740Z,9.70
2017-12-01T20:12:19.190Z,9.90
2017-12-01T20:14:47.440Z,9.90
2017-12-01T20:17:16.059Z,9.40
2017-12-01T20:19:44.722Z,9.60
2017-12-01T20:22:13.927Z,9.60
2017-12-01T20:24:42.208Z,9.80
2017-12-01T20:27:10.452Z,9.90
2017-12-01T20:29:38.947Z,10.00
2017-12-01T20:32:07.256Z,10.00
2017-12-01T20:34:35.883Z,10.00
2017-12-01T20:37:04.140Z,10.00
2017-12-01T20:39:32.610Z,9.80
2017-12-01T20:42:01.382Z,9.90
2017-12-01T20:44:30.021Z,9.80
2017-12-01T20:46:58.301Z,9.80
2017-12-01T20:49:26.742Z,9.60
2017-12-01T20:51:55.304Z,8.90
2017-12-01T20:54:23.582Z,8.60
2017-12-01T20:56:52.665Z,8.00
2017-12-01T20:59:20.930Z,8.00
2017-12-01T21:01:49.265Z,7.90
2017-12-01T21:04:17.499Z,8.20
2017-12-01T21:06:46.194Z,9.00
2017-12-01T21:09:14.905Z,8.90
2017-12-01T21:11:44.080Z,8.90
2017-12-01T21:14:12.738Z,8.00
2017-12-01T21:16:41.392Z,7.50
2017-12-01T21:19:09.669Z,7.50
2017-12-01T21:21:38.011Z,7.40
2017-12-01T21:24:06.648Z,7.80
2017-12-01T21:26:34.950Z,7.80
2017-12-01T21:29:03.647Z,7.60
2017-12-01T21:31:32.332Z,7.60
2017-12-01T21:34:01.081Z,7.80
2017-12-01T21:36:29.364Z,7.80
2017-12-01T21:38:57.617Z,8.10
2017-12-01T21:41:25.945Z,8.10
2017-12-01T21:43:54.594Z,7.40
2017-12-01T21:46:22.825Z,7.30
2017-12-01T21:48:51.107Z,7.00
2017-12-01T21:51:20.192Z,7.10
2017-12-01T21:53:48.457Z,7.50
2017-12-01T21:56:17.105Z,8.20
2017-12-01T21:58:45.547Z,8.20
2017-12-01T22:01:13.784Z,8.30
2017-12-01T22:03:42.041Z,8.50
2017-12-01T22:06:10.293Z,8.60
2017-12-01T22:08:38.561Z,8.50
2017-12-01T22:11:06.826Z,8.60
2017-12-01T22:13:35.067Z,8.80
2017-12-01T22:16:03.742Z,9.30
2017-12-01T22:18:32.387Z,9.60
2017-12-01T22:21:00.896Z,9.60
2017-12-01T22:23:29.211Z,9.50
2017-12-01T22:25:57.845Z,8.90
2017-12-01T22:28:26.349Z,9.00
2017-12-01T22:30:54.654Z,9.20
2017-12-01T22:33:22.959Z,9.60
2017-12-01T22:35:52.307Z,9.90
2017-12-01T22:38:20.552Z,9.80
2017-12-01T22:40:48.805Z,9.80
2017-12-01T22:43:17.213Z,9.90
2017-12-01T22:45:45.445Z,10.00
2017-12-01T22:48:19.274Z,10.10
2017-12-01T22:50:48.912Z,10.20
2017-12-01T22:53:17.157Z,10.10
2017-12-01T22:55:45.475Z,10.30
2017-12-01T22:58:13.769Z,9.90
2017-12-01T23:00:42.014Z,9.60
2017-12-01T23:03:10.264Z,9.70
2017-12-01T23:05:38.536Z,9.80
2017-12-01T23:08:06.778Z,9.60
2017-12-01T23:10:35.421Z,9.70
2017-12-01T23:13:03.659Z,9.70
2017-12-01T23:15:31.909Z,9.50
2017-12-01T23:18:00.581Z,9.40
2017-12-01T23:20:28.817Z,9.40
2017-12-01T23:22:57.112Z,9.50
2017-12-01T23:25:25.347Z,9.70
2017-12-01T23:27:53.588Z,9.80
2017-12-01T23:30:22.705Z,10.10
2017-12-01T23:32:52.292Z,10.10
2017-12-01T23:35:21.728Z,10.10
2017-12-01T23:37:51.017Z,9.70
2017-12-01T23:40:20.391Z,9.60
2017-12-01T23:42:49.059Z,9.70
2017-12-01T23:45:18.114Z,9.80
2017-12-01T23:47:47.291Z,10.00
2017-12-01T23:50:16.064Z,10.00
2017-12-01T23:52:45.603Z,10.10
2017-12-01T23:55:14.774Z,9.60
2017-12-01T23:57:44.374Z,9.60
